sensor_id;sensor_type;location;lat;lon;timestamp;P1;durP1;ratioP1;P2;durP2;ratioP2
76731;SDS011;65656;51.130;13.658;2023-01-09T00:02:28;25.67;;;23.08;;
76731;SDS011;65656;51.130;13.658;2023-01-09T00:06:30;26.63;;;24.15;;
76731;SDS011;65656;51.130;13.658;2023-01-09T00:10:32;27.48;;;20.75;;
76731;SDS011;65656;51.130;13.658;2023-01-09T00:14:33;27.58;;;24.98;;
76731;SDS011;65656;51.130;13.658;2023-01-09T00:18:35;21.38;;;17.83;;
76731;SDS011;65656;51.130;13.658;2023-01-09T00:22:39;21.50;;;18.73;;
76731;SDS011;65656;51.130;13.658;2023-01-09T00:26:40;23.70;;;21.40;;
76731;SDS011;65656;51.130;13.658;2023-01-09T00:30:42;23.92;;;21.63;;
76731;SDS011;65656;51.130;13.658;2023-01-09T00:34:43;27.65;;;24.90;;
76731;SDS011;65656;51.130;13.658;2023-01-09T00:38:46;35.22;;;32.28;;
76731;SDS011;65656;51.130;13.658;2023-01-09T00:42:49;26.90;;;24.27;;
76731;SDS011;65656;51.130;13.658;2023-01-09T00:46:54;24.02;;;21.60;;
76731;SDS011;65656;51.130;13.658;2023-01-09T00:50:58;19.83;;;15.13;;
76731;SDS011;65656;51.130;13.658;2023-01-09T00:55:02;24.23;;;21.67;;
76731;SDS011;65656;51.130;13.658;2023-01-09T00:59:04;23.30;;;21.02;;
76731;SDS011;65656;51.130;13.658;2023-01-09T01:03:06;25.27;;;22.42;;
76731;SDS011;65656;51.130;13.658;2023-01-09T01:07:08;23.48;;;21.02;;
76731;SDS011;65656;51.130;13.658;2023-01-09T01:11:11;24.20;;;21.50;;
76731;SDS011;65656;51.130;13.658;2023-01-09T01:15:12;30.38;;;27.40;;
76731;SDS011;65656;51.130;13.658;2023-01-09T01:19:14;24.48;;;21.38;;
76731;SDS011;65656;51.130;13.658;2023-01-09T01:23:16;23.98;;;21.42;;
76731;SDS011;65656;51.130;13.658;2023-01-09T01:27:18;24.55;;;20.75;;
76731;SDS011;65656;51.130;13.658;2023-01-09T01:31:20;21.73;;;17.05;;
76731;SDS011;65656;51.130;13.658;2023-01-09T01:35:21;25.55;;;21.80;;
76731;SDS011;65656;51.130;13.658;2023-01-09T01:39:23;25.63;;;18.13;;
76731;SDS011;65656;51.130;13.658;2023-01-09T01:43:26;25.25;;;17.40;;
76731;SDS011;65656;51.130;13.658;2023-01-09T01:47:32;23.27;;;19.73;;
76731;SDS011;65656;51.130;13.658;2023-01-09T01:51:39;22.42;;;18.08;;
76731;SDS011;65656;51.130;13.658;2023-01-09T01:55:43;35.65;;;32.47;;
76731;SDS011;65656;51.130;13.658;2023-01-09T01:59:49;28.77;;;25.83;;
76731;SDS011;65656;51.130;13.658;2023-01-09T02:03:54;25.92;;;23.35;;
76731;SDS011;65656;51.130;13.658;2023-01-09T02:07:57;23.33;;;20.77;;
76731;SDS011;65656;51.130;13.658;2023-01-09T02:11:58;29.67;;;27.02;;
76731;SDS011;65656;51.130;13.658;2023-01-09T02:16:03;25.23;;;22.92;;
76731;SDS011;65656;51.130;13.658;2023-01-09T02:20:34;23.55;;;20.80;;
76731;SDS011;65656;51.130;13.658;2023-01-09T02:29:21;20.25;;;18.15;;
76731;SDS011;65656;51.130;13.658;2023-01-09T02:33:44;22.20;;;18.02;;
76731;SDS011;65656;51.130;13.658;2023-01-09T02:37:56;20.45;;;17.02;;
76731;SDS011;65656;51.130;13.658;2023-01-09T02:42:11;24.08;;;19.98;;
76731;SDS011;65656;51.130;13.658;2023-01-09T02:46:17;23.20;;;20.60;;
76731;SDS011;65656;51.130;13.658;2023-01-09T02:50:22;21.63;;;17.90;;
76731;SDS011;65656;51.130;13.658;2023-01-09T02:54:30;20.50;;;16.40;;
76731;SDS011;65656;51.130;13.658;2023-01-09T02:58:48;23.38;;;20.95;;
76731;SDS011;65656;51.130;13.658;2023-01-09T03:03:06;22.83;;;19.30;;
76731;SDS011;65656;51.130;13.658;2023-01-09T03:07:14;24.30;;;21.73;;
76731;SDS011;65656;51.130;13.658;2023-01-09T03:11:21;20.45;;;16.70;;
76731;SDS011;65656;51.130;13.658;2023-01-09T03:15:31;26.67;;;23.98;;
76731;SDS011;65656;51.130;13.658;2023-01-09T03:23:46;29.10;;;26.33;;
76731;SDS011;65656;51.130;13.658;2023-01-09T03:27:55;27.98;;;25.25;;
76731;SDS011;65656;51.130;13.658;2023-01-09T03:31:58;25.83;;;21.92;;
76731;SDS011;65656;51.130;13.658;2023-01-09T03:35:59;23.35;;;19.95;;
76731;SDS011;65656;51.130;13.658;2023-01-09T03:40:03;22.45;;;19.25;;
76731;SDS011;65656;51.130;13.658;2023-01-09T03:44:05;26.50;;;19.80;;
76731;SDS011;65656;51.130;13.658;2023-01-09T03:48:06;25.90;;;19.75;;
76731;SDS011;65656;51.130;13.658;2023-01-09T03:52:07;23.65;;;19.98;;
76731;SDS011;65656;51.130;13.658;2023-01-09T03:56:10;30.00;;;26.90;;
76731;SDS011;65656;51.130;13.658;2023-01-09T04:00:12;29.55;;;23.20;;
76731;SDS011;65656;51.130;13.658;2023-01-09T04:04:14;25.30;;;19.35;;
76731;SDS011;65656;51.130;13.658;2023-01-09T04:08:15;23.85;;;18.77;;
76731;SDS011;65656;51.130;13.658;2023-01-09T04:12:19;27.25;;;24.55;;
76731;SDS011;65656;51.130;13.658;2023-01-09T04:16:20;23.20;;;20.27;;
76731;SDS011;65656;51.130;13.658;2023-01-09T04:20:22;26.52;;;20.35;;
76731;SDS011;65656;51.130;13.658;2023-01-09T04:24:23;21.95;;;17.08;;
76731;SDS011;65656;51.130;13.658;2023-01-09T04:28:26;23.20;;;19.73;;
76731;SDS011;65656;51.130;13.658;2023-01-09T04:32:27;20.83;;;17.17;;
76731;SDS011;65656;51.130;13.658;2023-01-09T04:36:29;23.27;;;17.85;;
76731;SDS011;65656;51.130;13.658;2023-01-09T04:40:30;20.00;;;17.38;;
76731;SDS011;65656;51.130;13.658;2023-01-09T04:44:33;31.25;;;28.60;;
76731;SDS011;65656;51.130;13.658;2023-01-09T04:48:34;26.08;;;23.33;;
76731;SDS011;65656;51.130;13.658;2023-01-09T04:52:36;24.17;;;19.95;;
76731;SDS011;65656;51.130;13.658;2023-01-09T04:56:39;23.67;;;20.15;;
76731;SDS011;65656;51.130;13.658;2023-01-09T05:00:42;22.60;;;16.85;;
76731;SDS011;65656;51.130;13.658;2023-01-09T05:04:43;26.98;;;23.98;;
76731;SDS011;65656;51.130;13.658;2023-01-09T05:08:44;29.65;;;26.83;;
76731;SDS011;65656;51.130;13.658;2023-01-09T05:12:46;29.77;;;22.48;;
76731;SDS011;65656;51.130;13.658;2023-01-09T05:16:49;23.52;;;21.00;;
76731;SDS011;65656;51.130;13.658;2023-01-09T05:20:50;22.20;;;17.38;;
76731;SDS011;65656;51.130;13.658;2023-01-09T05:24:52;24.05;;;18.15;;
76731;SDS011;65656;51.130;13.658;2023-01-09T05:28:53;25.90;;;19.15;;
76731;SDS011;65656;51.130;13.658;2023-01-09T05:32:56;24.60;;;21.38;;
76731;SDS011;65656;51.130;13.658;2023-01-09T05:36:58;20.52;;;15.93;;
76731;SDS011;65656;51.130;13.658;2023-01-09T05:40:59;22.42;;;17.88;;
76731;SDS011;65656;51.130;13.658;2023-01-09T05:45:01;29.45;;;26.77;;
76731;SDS011;65656;51.130;13.658;2023-01-09T05:49:03;27.38;;;24.77;;
76731;SDS011;65656;51.130;13.658;2023-01-09T05:53:05;29.52;;;26.55;;
76731;SDS011;65656;51.130;13.658;2023-01-09T05:57:06;23.35;;;18.95;;
76731;SDS011;65656;51.130;13.658;2023-01-09T06:01:08;32.53;;;29.58;;
76731;SDS011;65656;51.130;13.658;2023-01-09T06:05:11;22.75;;;20.30;;
76731;SDS011;65656;51.130;13.658;2023-01-09T06:09:12;23.52;;;18.25;;
76731;SDS011;65656;51.130;13.658;2023-01-09T06:13:14;19.73;;;15.38;;
76731;SDS011;65656;51.130;13.658;2023-01-09T06:17:15;23.23;;;19.88;;
76731;SDS011;65656;51.130;13.658;2023-01-09T06:21:18;51.25;;;28.30;;
76731;SDS011;65656;51.130;13.658;2023-01-09T06:25:20;44.15;;;24.20;;
76731;SDS011;65656;51.130;13.658;2023-01-09T06:29:22;51.40;;;31.75;;
76731;SDS011;65656;51.130;13.658;2023-01-09T06:33:23;26.40;;;21.73;;
76731;SDS011;65656;51.130;13.658;2023-01-09T06:37:26;28.27;;;24.67;;
76731;SDS011;65656;51.130;13.658;2023-01-09T06:41:27;24.00;;;21.52;;
76731;SDS011;65656;51.130;13.658;2023-01-09T06:45:29;26.38;;;22.05;;
76731;SDS011;65656;51.130;13.658;2023-01-09T06:49:30;21.80;;;18.70;;
76731;SDS011;65656;51.130;13.658;2023-01-09T06:53:33;22.98;;;20.58;;
76731;SDS011;65656;51.130;13.658;2023-01-09T06:57:34;24.02;;;22.00;;
76731;SDS011;65656;51.130;13.658;2023-01-09T07:01:36;24.45;;;18.98;;
76731;SDS011;65656;51.130;13.658;2023-01-09T07:05:39;18.42;;;15.02;;
76731;SDS011;65656;51.130;13.658;2023-01-09T07:09:43;20.17;;;17.80;;
76731;SDS011;65656;51.130;13.658;2023-01-09T07:13:44;21.02;;;18.90;;
76731;SDS011;65656;51.130;13.658;2023-01-09T07:17:46;16.45;;;12.35;;
76731;SDS011;65656;51.130;13.658;2023-01-09T07:21:49;20.17;;;13.55;;
76731;SDS011;65656;51.130;13.658;2023-01-09T07:25:52;20.35;;;15.95;;
76731;SDS011;65656;51.130;13.658;2023-01-09T07:29:53;19.35;;;15.90;;
76731;SDS011;65656;51.130;13.658;2023-01-09T07:33:55;21.25;;;16.13;;
76731;SDS011;65656;51.130;13.658;2023-01-09T07:37:56;21.70;;;15.77;;
76731;SDS011;65656;51.130;13.658;2023-01-09T07:41:59;17.83;;;14.48;;
76731;SDS011;65656;51.130;13.658;2023-01-09T07:46:00;17.10;;;13.48;;
76731;SDS011;65656;51.130;13.658;2023-01-09T07:50:02;19.38;;;16.30;;
76731;SDS011;65656;51.130;13.658;2023-01-09T07:54:03;18.95;;;16.88;;
76731;SDS011;65656;51.130;13.658;2023-01-09T07:58:06;21.85;;;19.67;;
76731;SDS011;65656;51.130;13.658;2023-01-09T08:02:08;18.33;;;16.05;;
76731;SDS011;65656;51.130;13.658;2023-01-09T08:06:10;17.38;;;14.73;;
76731;SDS011;65656;51.130;13.658;2023-01-09T08:10:11;19.50;;;17.52;;
76731;SDS011;65656;51.130;13.658;2023-01-09T08:14:14;18.20;;;15.18;;
76731;SDS011;65656;51.130;13.658;2023-01-09T08:18:15;18.08;;;16.15;;
76731;SDS011;65656;51.130;13.658;2023-01-09T08:22:17;19.00;;;13.30;;
76731;SDS011;65656;51.130;13.658;2023-01-09T08:26:18;18.27;;;15.30;;
76731;SDS011;65656;51.130;13.658;2023-01-09T08:30:21;18.95;;;17.15;;
76731;SDS011;65656;51.130;13.658;2023-01-09T08:34:23;21.50;;;16.75;;
76731;SDS011;65656;51.130;13.658;2023-01-09T08:38:24;16.55;;;14.02;;
76731;SDS011;65656;51.130;13.658;2023-01-09T08:42:25;19.63;;;17.80;;
76731;SDS011;65656;51.130;13.658;2023-01-09T08:46:28;13.65;;;12.13;;
76731;SDS011;65656;51.130;13.658;2023-01-09T08:50:29;15.80;;;13.98;;
76731;SDS011;65656;51.130;13.658;2023-01-09T08:54:31;13.00;;;11.75;;
76731;SDS011;65656;51.130;13.658;2023-01-09T08:58:32;17.15;;;15.43;;
76731;SDS011;65656;51.130;13.658;2023-01-09T09:02:35;14.02;;;12.63;;
76731;SDS011;65656;51.130;13.658;2023-01-09T09:06:37;19.60;;;17.70;;
76731;SDS011;65656;51.130;13.658;2023-01-09T09:10:38;15.07;;;13.63;;
76731;SDS011;65656;51.130;13.658;2023-01-09T09:14:40;21.48;;;19.83;;
76731;SDS011;65656;51.130;13.658;2023-01-09T09:18:42;13.52;;;11.48;;
76731;SDS011;65656;51.130;13.658;2023-01-09T09:22:44;12.30;;;10.48;;
76731;SDS011;65656;51.130;13.658;2023-01-09T09:26:46;18.50;;;17.08;;
76731;SDS011;65656;51.130;13.658;2023-01-09T09:30:47;15.65;;;14.25;;
76731;SDS011;65656;51.130;13.658;2023-01-09T09:34:50;12.48;;;11.45;;
76731;SDS011;65656;51.130;13.658;2023-01-09T09:38:51;10.73;;;9.23;;
76731;SDS011;65656;51.130;13.658;2023-01-09T09:42:59;11.05;;;10.10;;
76731;SDS011;65656;51.130;13.658;2023-01-09T09:47:18;27.85;;;25.65;;
76731;SDS011;65656;51.130;13.658;2023-01-09T09:51:33;23.25;;;21.85;;
76731;SDS011;65656;51.130;13.658;2023-01-09T09:55:43;8.25;;;7.65;;
76731;SDS011;65656;51.130;13.658;2023-01-09T09:59:46;5.93;;;5.43;;
76731;SDS011;65656;51.130;13.658;2023-01-09T10:03:49;7.55;;;6.97;;
76731;SDS011;65656;51.130;13.658;2023-01-09T10:07:54;6.10;;;5.60;;
76731;SDS011;65656;51.130;13.658;2023-01-09T10:12:20;8.70;;;8.10;;
76731;SDS011;65656;51.130;13.658;2023-01-09T10:16:30;6.40;;;5.93;;
76731;SDS011;65656;51.130;13.658;2023-01-09T10:20:44;9.70;;;8.55;;
76731;SDS011;65656;51.130;13.658;2023-01-09T10:24:54;5.53;;;4.97;;
76731;SDS011;65656;51.130;13.658;2023-01-09T10:29:21;11.60;;;10.90;;
76731;SDS011;65656;51.130;13.658;2023-01-09T10:33:40;6.30;;;5.80;;
76731;SDS011;65656;51.130;13.658;2023-01-09T10:37:54;7.63;;;7.10;;
76731;SDS011;65656;51.130;13.658;2023-01-09T10:42:03;5.65;;;5.18;;
76731;SDS011;65656;51.130;13.658;2023-01-09T10:50:19;9.85;;;9.32;;
76731;SDS011;65656;51.130;13.658;2023-01-09T10:54:22;5.85;;;5.50;;
76731;SDS011;65656;51.130;13.658;2023-01-09T10:58:25;4.82;;;4.53;;
76731;SDS011;65656;51.130;13.658;2023-01-09T11:02:28;10.20;;;9.65;;
76731;SDS011;65656;51.130;13.658;2023-01-09T11:06:35;11.10;;;10.50;;
76731;SDS011;65656;51.130;13.658;2023-01-09T11:10:45;9.25;;;8.73;;
76731;SDS011;65656;51.130;13.658;2023-01-09T11:14:49;12.60;;;11.88;;
76731;SDS011;65656;51.130;13.658;2023-01-09T11:18:51;12.60;;;11.07;;
76731;SDS011;65656;51.130;13.658;2023-01-09T11:22:54;20.38;;;13.90;;
76731;SDS011;65656;51.130;13.658;2023-01-09T11:27:17;15.13;;;8.85;;
76731;SDS011;65656;51.130;13.658;2023-01-09T11:31:21;10.23;;;9.60;;
76731;SDS011;65656;51.130;13.658;2023-01-09T11:35:24;5.60;;;5.18;;
76731;SDS011;65656;51.130;13.658;2023-01-09T11:39:29;8.32;;;7.82;;
76731;SDS011;65656;51.130;13.658;2023-01-09T11:43:33;6.18;;;5.78;;
76731;SDS011;65656;51.130;13.658;2023-01-09T11:47:38;11.32;;;10.73;;
76731;SDS011;65656;51.130;13.658;2023-01-09T11:51:41;8.38;;;7.85;;
76731;SDS011;65656;51.130;13.658;2023-01-09T11:55:43;5.95;;;5.63;;
76731;SDS011;65656;51.130;13.658;2023-01-09T11:59:46;6.32;;;6.00;;
76731;SDS011;65656;51.130;13.658;2023-01-09T12:03:53;9.82;;;9.32;;
76731;SDS011;65656;51.130;13.658;2023-01-09T12:08:14;6.63;;;6.25;;
76731;SDS011;65656;51.130;13.658;2023-01-09T12:12:24;5.68;;;5.22;;
76731;SDS011;65656;51.130;13.658;2023-01-09T12:16:31;5.97;;;4.40;;
76731;SDS011;65656;51.130;13.658;2023-01-09T12:20:43;14.05;;;13.32;;
76731;SDS011;65656;51.130;13.658;2023-01-09T12:25:05;7.00;;;6.60;;
76731;SDS011;65656;51.130;13.658;2023-01-09T12:29:22;4.60;;;4.32;;
76731;SDS011;65656;51.130;13.658;2023-01-09T12:33:36;7.95;;;7.57;;
76731;SDS011;65656;51.130;13.658;2023-01-09T12:42:22;7.13;;;6.68;;
76731;SDS011;65656;51.130;13.658;2023-01-09T12:46:32;9.25;;;8.65;;
76731;SDS011;65656;51.130;13.658;2023-01-09T12:55:12;8.13;;;7.65;;
76731;SDS011;65656;51.130;13.658;2023-01-09T12:59:25;8.52;;;8.00;;
76731;SDS011;65656;51.130;13.658;2023-01-09T13:03:32;7.45;;;6.85;;
76731;SDS011;65656;51.130;13.658;2023-01-09T13:07:39;7.65;;;7.07;;
76731;SDS011;65656;51.130;13.658;2023-01-09T13:11:47;6.18;;;5.53;;
76731;SDS011;65656;51.130;13.658;2023-01-09T13:15:54;4.82;;;4.32;;
76731;SDS011;65656;51.130;13.658;2023-01-09T13:19:58;8.77;;;8.13;;
76731;SDS011;65656;51.130;13.658;2023-01-09T13:24:00;10.55;;;10.02;;
76731;SDS011;65656;51.130;13.658;2023-01-09T13:28:14;7.68;;;7.18;;
76731;SDS011;65656;51.130;13.658;2023-01-09T13:32:24;10.65;;;10.13;;
76731;SDS011;65656;51.130;13.658;2023-01-09T13:36:35;9.68;;;9.02;;
76731;SDS011;65656;51.130;13.658;2023-01-09T13:40:39;4.40;;;4.07;;
76731;SDS011;65656;51.130;13.658;2023-01-09T13:44:42;11.60;;;11.00;;
76731;SDS011;65656;51.130;13.658;2023-01-09T13:48:45;5.35;;;5.03;;
76731;SDS011;65656;51.130;13.658;2023-01-09T13:52:47;10.30;;;9.82;;
76731;SDS011;65656;51.130;13.658;2023-01-09T14:01:42;7.60;;;7.18;;
76731;SDS011;65656;51.130;13.658;2023-01-09T14:10:19;6.57;;;6.10;;
76731;SDS011;65656;51.130;13.658;2023-01-09T14:14:25;6.10;;;5.57;;
76731;SDS011;65656;51.130;13.658;2023-01-09T14:22:33;18.67;;;17.40;;
76731;SDS011;65656;51.130;13.658;2023-01-09T14:26:57;5.82;;;5.38;;
76731;SDS011;65656;51.130;13.658;2023-01-09T14:31:07;8.65;;;8.15;;
76731;SDS011;65656;51.130;13.658;2023-01-09T14:35:16;5.57;;;5.18;;
76731;SDS011;65656;51.130;13.658;2023-01-09T14:39:28;6.03;;;5.65;;
76731;SDS011;65656;51.130;13.658;2023-01-09T14:43:37;3.78;;;3.45;;
76731;SDS011;65656;51.130;13.658;2023-01-09T14:47:44;3.47;;;3.10;;
76731;SDS011;65656;51.130;13.658;2023-01-09T14:51:50;3.53;;;3.30;;
76731;SDS011;65656;51.130;13.658;2023-01-09T14:55:54;8.38;;;7.90;;
76731;SDS011;65656;51.130;13.658;2023-01-09T14:59:57;5.53;;;5.22;;
76731;SDS011;65656;51.130;13.658;2023-01-09T15:03:59;7.40;;;6.80;;
76731;SDS011;65656;51.130;13.658;2023-01-09T15:08:05;4.90;;;4.60;;
76731;SDS011;65656;51.130;13.658;2023-01-09T15:12:07;8.43;;;7.93;;
76731;SDS011;65656;51.130;13.658;2023-01-09T15:16:13;7.55;;;7.13;;
76731;SDS011;65656;51.130;13.658;2023-01-09T15:20:19;5.85;;;5.53;;
76731;SDS011;65656;51.130;13.658;2023-01-09T15:24:26;5.93;;;5.50;;
76731;SDS011;65656;51.130;13.658;2023-01-09T15:28:30;5.65;;;5.15;;
76731;SDS011;65656;51.130;13.658;2023-01-09T15:32:32;6.00;;;5.60;;
76731;SDS011;65656;51.130;13.658;2023-01-09T15:36:35;5.03;;;4.70;;
76731;SDS011;65656;51.130;13.658;2023-01-09T15:40:38;11.00;;;10.15;;
76731;SDS011;65656;51.130;13.658;2023-01-09T15:44:41;9.88;;;9.30;;
76731;SDS011;65656;51.130;13.658;2023-01-09T15:48:45;4.65;;;4.32;;
76731;SDS011;65656;51.130;13.658;2023-01-09T15:52:54;6.75;;;6.32;;
76731;SDS011;65656;51.130;13.658;2023-01-09T16:01:39;11.02;;;10.43;;
76731;SDS011;65656;51.130;13.658;2023-01-09T16:05:41;9.90;;;9.18;;
76731;SDS011;65656;51.130;13.658;2023-01-09T16:09:44;16.48;;;15.48;;
76731;SDS011;65656;51.130;13.658;2023-01-09T16:13:47;7.68;;;7.10;;
76731;SDS011;65656;51.130;13.658;2023-01-09T16:18:13;9.27;;;8.43;;
76731;SDS011;65656;51.130;13.658;2023-01-09T16:22:21;7.18;;;6.70;;
76731;SDS011;65656;51.130;13.658;2023-01-09T16:26:25;8.38;;;7.78;;
76731;SDS011;65656;51.130;13.658;2023-01-09T16:30:27;11.68;;;10.60;;
76731;SDS011;65656;51.130;13.658;2023-01-09T16:34:30;10.40;;;9.55;;
76731;SDS011;65656;51.130;13.658;2023-01-09T16:38:34;9.35;;;8.60;;
76731;SDS011;65656;51.130;13.658;2023-01-09T16:42:35;10.50;;;9.68;;
76731;SDS011;65656;51.130;13.658;2023-01-09T16:46:37;16.25;;;14.43;;
76731;SDS011;65656;51.130;13.658;2023-01-09T16:50:41;21.58;;;19.90;;
76731;SDS011;65656;51.130;13.658;2023-01-09T16:54:43;11.18;;;10.15;;
76731;SDS011;65656;51.130;13.658;2023-01-09T16:58:45;11.13;;;10.40;;
76731;SDS011;65656;51.130;13.658;2023-01-09T17:02:47;19.58;;;16.50;;
76731;SDS011;65656;51.130;13.658;2023-01-09T17:06:49;14.13;;;12.65;;
76731;SDS011;65656;51.130;13.658;2023-01-09T17:10:52;11.30;;;10.38;;
76731;SDS011;65656;51.130;13.658;2023-01-09T17:14:55;8.63;;;7.90;;
76731;SDS011;65656;51.130;13.658;2023-01-09T17:18:56;16.23;;;14.80;;
76731;SDS011;65656;51.130;13.658;2023-01-09T17:22:59;36.67;;;33.53;;
76731;SDS011;65656;51.130;13.658;2023-01-09T17:27:00;28.10;;;25.63;;
76731;SDS011;65656;51.130;13.658;2023-01-09T17:31:04;16.75;;;15.52;;
76731;SDS011;65656;51.130;13.658;2023-01-09T17:35:07;17.98;;;16.65;;
76731;SDS011;65656;51.130;13.658;2023-01-09T17:39:14;15.73;;;14.50;;
76731;SDS011;65656;51.130;13.658;2023-01-09T17:43:16;18.15;;;16.73;;
76731;SDS011;65656;51.130;13.658;2023-01-09T17:47:18;12.50;;;11.57;;
76731;SDS011;65656;51.130;13.658;2023-01-09T17:51:19;13.73;;;12.60;;
76731;SDS011;65656;51.130;13.658;2023-01-09T17:55:22;15.57;;;14.57;;
76731;SDS011;65656;51.130;13.658;2023-01-09T17:59:23;16.80;;;15.75;;
76731;SDS011;65656;51.130;13.658;2023-01-09T18:03:27;16.00;;;15.00;;
76731;SDS011;65656;51.130;13.658;2023-01-09T18:07:29;14.52;;;13.70;;
76731;SDS011;65656;51.130;13.658;2023-01-09T18:11:31;10.35;;;9.45;;
76731;SDS011;65656;51.130;13.658;2023-01-09T18:15:33;13.80;;;12.95;;
76731;SDS011;65656;51.130;13.658;2023-01-09T18:19:35;12.85;;;11.95;;
76731;SDS011;65656;51.130;13.658;2023-01-09T18:23:36;16.40;;;15.38;;
76731;SDS011;65656;51.130;13.658;2023-01-09T18:27:39;22.13;;;20.98;;
76731;SDS011;65656;51.130;13.658;2023-01-09T18:31:40;10.32;;;9.60;;
76731;SDS011;65656;51.130;13.658;2023-01-09T18:35:42;7.90;;;7.22;;
76731;SDS011;65656;51.130;13.658;2023-01-09T18:39:45;10.98;;;10.25;;
76731;SDS011;65656;51.130;13.658;2023-01-09T18:43:48;19.38;;;18.27;;
76731;SDS011;65656;51.130;13.658;2023-01-09T18:47:50;6.70;;;6.10;;
76731;SDS011;65656;51.130;13.658;2023-01-09T18:51:51;9.07;;;8.45;;
76731;SDS011;65656;51.130;13.658;2023-01-09T18:55:53;12.10;;;11.32;;
76731;SDS011;65656;51.130;13.658;2023-01-09T18:59:55;9.50;;;8.90;;
76731;SDS011;65656;51.130;13.658;2023-01-09T19:03:57;14.18;;;13.32;;
76731;SDS011;65656;51.130;13.658;2023-01-09T19:08:00;9.52;;;8.35;;
76731;SDS011;65656;51.130;13.658;2023-01-09T19:12:01;7.30;;;6.78;;
76731;SDS011;65656;51.130;13.658;2023-01-09T19:16:05;11.15;;;10.45;;
76731;SDS011;65656;51.130;13.658;2023-01-09T19:20:08;12.57;;;11.95;;
76731;SDS011;65656;51.130;13.658;2023-01-09T19:24:10;9.93;;;9.10;;
76731;SDS011;65656;51.130;13.658;2023-01-09T19:28:12;18.00;;;17.00;;
76731;SDS011;65656;51.130;13.658;2023-01-09T19:32:15;9.45;;;8.60;;
76731;SDS011;65656;51.130;13.658;2023-01-09T19:36:16;6.40;;;5.82;;
76731;SDS011;65656;51.130;13.658;2023-01-09T19:40:18;12.77;;;12.00;;
76731;SDS011;65656;51.130;13.658;2023-01-09T19:44:19;16.08;;;15.02;;
76731;SDS011;65656;51.130;13.658;2023-01-09T19:48:22;9.23;;;8.68;;
76731;SDS011;65656;51.130;13.658;2023-01-09T19:52:24;8.98;;;8.43;;
76731;SDS011;65656;51.130;13.658;2023-01-09T19:56:26;9.20;;;8.40;;
76731;SDS011;65656;51.130;13.658;2023-01-09T20:00:28;8.93;;;8.25;;
76731;SDS011;65656;51.130;13.658;2023-01-09T20:04:31;11.60;;;10.98;;
76731;SDS011;65656;51.130;13.658;2023-01-09T20:08:33;9.00;;;8.48;;
76731;SDS011;65656;51.130;13.658;2023-01-09T20:12:34;8.70;;;8.05;;
76731;SDS011;65656;51.130;13.658;2023-01-09T20:16:36;8.35;;;7.85;;
76731;SDS011;65656;51.130;13.658;2023-01-09T20:20:39;6.18;;;5.75;;
76731;SDS011;65656;51.130;13.658;2023-01-09T20:24:39;14.70;;;13.80;;
76731;SDS011;65656;51.130;13.658;2023-01-09T20:28:40;13.38;;;12.68;;
76731;SDS011;65656;51.130;13.658;2023-01-09T20:32:42;9.23;;;8.52;;
76731;SDS011;65656;51.130;13.658;2023-01-09T20:36:44;13.63;;;12.82;;
76731;SDS011;65656;51.130;13.658;2023-01-09T20:40:46;8.15;;;7.55;;
76731;SDS011;65656;51.130;13.658;2023-01-09T20:44:47;8.43;;;7.90;;
76731;SDS011;65656;51.130;13.658;2023-01-09T20:48:49;14.88;;;14.10;;
76731;SDS011;65656;51.130;13.658;2023-01-09T20:52:51;8.60;;;8.13;;
76731;SDS011;65656;51.130;13.658;2023-01-09T20:56:53;7.78;;;7.32;;
76731;SDS011;65656;51.130;13.658;2023-01-09T21:00:54;5.90;;;5.50;;
76731;SDS011;65656;51.130;13.658;2023-01-09T21:04:56;7.72;;;7.20;;
76731;SDS011;65656;51.130;13.658;2023-01-09T21:08:59;6.32;;;5.90;;
76731;SDS011;65656;51.130;13.658;2023-01-09T21:13:00;16.38;;;15.45;;
76731;SDS011;65656;51.130;13.658;2023-01-09T21:17:01;7.63;;;7.10;;
76731;SDS011;65656;51.130;13.658;2023-01-09T21:21:03;7.93;;;7.20;;
76731;SDS011;65656;51.130;13.658;2023-01-09T21:25:08;8.10;;;7.55;;
76731;SDS011;65656;51.130;13.658;2023-01-09T21:29:10;9.35;;;8.73;;
76731;SDS011;65656;51.130;13.658;2023-01-09T21:33:12;13.52;;;12.75;;
76731;SDS011;65656;51.130;13.658;2023-01-09T21:37:14;12.55;;;11.93;;
76731;SDS011;65656;51.130;13.658;2023-01-09T21:41:17;8.98;;;8.45;;
76731;SDS011;65656;51.130;13.658;2023-01-09T21:45:19;9.40;;;8.90;;
76731;SDS011;65656;51.130;13.658;2023-01-09T21:49:21;8.18;;;7.53;;
76731;SDS011;65656;51.130;13.658;2023-01-09T21:53:24;5.80;;;5.30;;
76731;SDS011;65656;51.130;13.658;2023-01-09T21:57:27;13.63;;;12.77;;
76731;SDS011;65656;51.130;13.658;2023-01-09T22:01:28;8.93;;;8.30;;
76731;SDS011;65656;51.130;13.658;2023-01-09T22:05:30;10.50;;;9.90;;
76731;SDS011;65656;51.130;13.658;2023-01-09T22:09:31;10.65;;;10.02;;
76731;SDS011;65656;51.130;13.658;2023-01-09T22:13:34;11.45;;;10.45;;
76731;SDS011;65656;51.130;13.658;2023-01-09T22:17:35;10.38;;;9.80;;
76731;SDS011;65656;51.130;13.658;2023-01-09T22:21:37;13.73;;;12.98;;
76731;SDS011;65656;51.130;13.658;2023-01-09T22:25:39;11.50;;;10.85;;
76731;SDS011;65656;51.130;13.658;2023-01-09T22:29:41;5.93;;;5.50;;
76731;SDS011;65656;51.130;13.658;2023-01-09T22:33:47;6.25;;;5.82;;
76731;SDS011;65656;51.130;13.658;2023-01-09T22:37:49;8.00;;;5.93;;
76731;SDS011;65656;51.130;13.658;2023-01-09T22:41:50;7.93;;;7.47;;
76731;SDS011;65656;51.130;13.658;2023-01-09T22:45:58;10.73;;;10.18;;
76731;SDS011;65656;51.130;13.658;2023-01-09T22:50:00;10.73;;;10.13;;
76731;SDS011;65656;51.130;13.658;2023-01-09T22:54:01;6.93;;;6.45;;
76731;SDS011;65656;51.130;13.658;2023-01-09T22:58:02;8.63;;;8.07;;
76731;SDS011;65656;51.130;13.658;2023-01-09T23:02:05;8.18;;;7.65;;
76731;SDS011;65656;51.130;13.658;2023-01-09T23:06:08;12.45;;;11.68;;
76731;SDS011;65656;51.130;13.658;2023-01-09T23:10:11;5.35;;;4.95;;
76731;SDS011;65656;51.130;13.658;2023-01-09T23:14:13;11.88;;;11.27;;
76731;SDS011;65656;51.130;13.658;2023-01-09T23:18:16;12.88;;;12.23;;
76731;SDS011;65656;51.130;13.658;2023-01-09T23:22:17;14.85;;;14.00;;
76731;SDS011;65656;51.130;13.658;2023-01-09T23:26:19;7.95;;;7.47;;
76731;SDS011;65656;51.130;13.658;2023-01-09T23:30:20;8.48;;;7.85;;
76731;SDS011;65656;51.130;13.658;2023-01-09T23:34:23;12.70;;;12.00;;
76731;SDS011;65656;51.130;13.658;2023-01-09T23:38:25;13.23;;;12.52;;
76731;SDS011;65656;51.130;13.658;2023-01-09T23:42:27;7.38;;;6.90;;
76731;SDS011;65656;51.130;13.658;2023-01-09T23:46:28;8.73;;;8.00;;
76731;SDS011;65656;51.130;13.658;2023-01-09T23:50:31;7.68;;;7.15;;
76731;SDS011;65656;51.130;13.658;2023-01-09T23:54:32;6.47;;;5.97;;
76731;SDS011;65656;51.130;13.658;2023-01-09T23:58:34;5.68;;;5.20;;
